Time;durP1;ratioP1;P1;durP2;ratioP2;P2;SDS_P1;SDS_P2;PMS_P1;PMS_P2;Temp;Humidity;BMP_temperature;BMP_pressure;BME280_temperature;BME280_humidity;BME280_pressure;Samples;Min_cycle;Max_cycle;Signal;HPM_P1;HPM_P2
2022/02/03 00:00:03;;;;;;;11.03;5.90;;;;;;;0.73;85.61;100511.98;1675786;84;25757;-73
2022/02/03 00:02:09;;;;;;;11.25;6.05;;;;;;;0.74;85.70;100505.28;1646217;86;25946;-74
2022/02/03 00:04:21;;;;;;;;;;;;;;;0.72;85.56;100511.17;1678006;84;25987;-74
2022/02/03 00:06:57;;;;;;;13.22;5.83;;;;;;;0.72;85.69;100516.91;1677296;84;27481;-73
2022/02/03 00:09:55;;;;;;;14.07;5.70;;;;;;;0.72;85.77;100522.19;1677438;84;25727;-73
2022/02/03 00:23:12;;;;;;;15.18;7.47;;;;;;;0.86;85.75;100542.97;1678375;84;25821;-73
2022/02/03 00:25:27;;;;;;;13.68;7.12;;;;;;;0.88;85.74;100550.27;1675398;84;25781;-73
2022/02/03 00:28:06;;;;;;;13.30;7.00;;;;;;;0.91;85.74;100552.66;1675686;84;25839;-72
2022/02/03 00:38:29;;;;;;;15.15;7.42;;;;;;;0.99;85.75;100570.48;1675114;84;25921;-73
2022/02/03 00:49:12;;;;;;;13.83;6.42;;;;;;;0.98;85.95;100594.72;1676572;84;26335;-74
2022/02/03 00:51:44;;;;;;;11.63;6.83;;;;;;;0.97;86.00;100594.82;1680402;84;25789;-72
2022/02/03 00:54:10;;;;;;;15.08;7.45;;;;;;;0.95;86.03;100593.64;1676080;84;26740;-73
2022/02/03 00:56:43;;;;;;;8.15;6.08;;;;;;;0.97;86.22;100599.63;1678899;84;25998;-73
2022/02/03 00:59:23;;;;;;;14.23;6.55;;;;;;;0.96;86.19;100599.28;1678718;84;28377;-73
2022/02/03 01:01:50;;;;;;;10.70;6.50;;;;;;;0.92;86.23;100609.70;1676630;84;25674;-73
2022/02/03 01:04:17;;;;;;;12.58;6.03;;;;;;;0.91;86.31;100612.00;1678541;84;25329;-73
2022/02/03 01:06:55;;;;;;;12.98;6.78;;;;;;;0.89;86.36;100612.61;1679978;84;25894;-73
2022/02/03 01:09:27;;;;;;;15.55;6.72;;;;;;;0.91;86.45;100619.91;1679575;84;25768;-73
2022/02/03 01:12:12;;;;;;;10.23;6.30;;;;;;;0.93;86.55;100629.00;1680352;84;27466;-73
2022/02/03 01:14:42;;;;;;;15.48;6.95;;;;;;;0.94;86.53;100633.33;1674713;84;26230;-73
2022/02/03 01:44:42;;;;;;;10.93;5.00;;;;;;;0.95;86.99;100638.94;1677757;84;25880;-73
2022/02/03 01:47:21;;;;;;;12.35;5.92;;;;;;;0.93;86.93;100640.39;1677026;84;25947;-75
2022/02/03 01:52:24;;;;;;;9.53;5.45;;;;;;;0.92;87.26;100649.76;1678373;84;27461;-72
2022/02/03 01:54:54;;;;;;;10.45;5.87;;;;;;;0.92;87.37;100640.53;1673992;84;25849;-73
2022/02/03 01:57:29;;;;;;;11.88;6.75;;;;;;;0.91;87.37;100646.28;1679289;84;25346;-74
2022/02/03 02:00:01;;;;;;;14.78;6.62;;;;;;;0.90;87.57;100640.63;1679819;84;25833;-73
2022/02/03 02:02:31;;;;;;;11.60;5.80;;;;;;;0.91;87.56;100646.28;1677174;84;25512;-73
2022/02/03 02:05:08;;;;;;;13.93;6.87;;;;;;;0.93;87.62;100649.63;1679654;84;27437;-73
2022/02/03 02:08:06;;;;;;;15.93;7.65;;;;;;;0.93;87.68;100652.73;1637234;86;26184;-73
2022/02/03 02:11:17;;;;;;;11.83;6.00;;;;;;;0.95;87.81;100664.84;1677845;84;25890;-72
2022/02/03 02:17:29;;;;;;;11.55;6.25;;;;;;;0.93;87.95;100676.00;1676681;84;25953;-72
2022/02/03 02:38:59;;;;;;;13.48;7.75;;;;;;;0.92;88.49;100691.45;1672747;85;25816;-73
2022/02/03 02:44:33;;;;;;;13.50;8.08;;;;;;;0.90;88.49;100689.41;1664576;85;26567;-73
2022/02/03 02:47:04;;;;;;;16.23;7.58;;;;;;;0.89;88.64;100687.76;1665594;84;27544;-74
2022/02/03 02:50:01;;;;;;;12.93;8.18;;;;;;;0.89;88.71;100696.14;1647117;86;25892;-74
2022/02/03 02:52:38;;;;;;;18.92;8.35;;;;;;;0.91;88.82;100698.17;1626507;87;25879;-73
2022/02/03 02:55:46;;;;;;;18.82;9.55;;;;;;;0.89;88.93;100697.45;1643831;86;25814;-73
2022/02/03 02:58:17;;;;;;;19.70;10.60;;;;;;;0.91;89.03;100707.41;1615929;87;26483;-74
2022/02/03 03:03:54;;;;;;;20.17;10.20;;;;;;;0.90;89.21;100725.52;1674383;85;26545;-73
2022/02/03 03:31:37;;;;;;;18.77;9.80;;;;;;;0.94;89.62;100763.36;1640177;86;26112;-72
2022/02/03 03:33:53;;;;;;;17.12;9.53;;;;;;;0.93;89.64;100770.93;1638347;86;25828;-73
2022/02/03 03:36:14;;;;;;;22.22;9.45;;;;;;;0.94;89.79;100777.05;1640325;86;26544;-73
2022/02/03 03:38:42;;;;;;;19.87;11.38;;;;;;;0.93;89.73;100772.25;1646097;85;25888;-73
2022/02/03 03:41:08;;;;;;;17.40;10.23;;;;;;;0.94;89.82;100775.73;1647307;86;27215;-73
2022/02/03 03:43:41;;;;;;;18.77;9.23;;;;;;;0.95;89.81;100774.76;1652723;86;25934;-73
2022/02/03 03:46:22;;;;;;;17.42;9.13;;;;;;;0.92;89.83;100773.20;1638573;87;25857;-73
2022/02/03 03:49:28;;;;;;;14.73;9.50;;;;;;;0.92;89.91;100775.02;1678206;84;25911;-73
2022/02/03 03:52:05;;;;;;;15.18;9.03;;;;;;;0.91;89.96;100779.92;1677322;84;25976;-73
2022/02/03 03:57:18;;;;;;;16.60;8.23;;;;;;;0.91;90.05;100791.78;1678358;84;26460;-73
2022/02/03 03:59:53;;;;;;;17.45;9.00;;;;;;;0.91;90.11;100797.06;1680534;84;25560;-73
2022/02/03 04:29:28;;;;;;;13.38;7.92;;;;;;;0.85;90.54;100808.09;1678629;84;25339;-73
2022/02/03 05:00:22;;;;;;;19.25;9.40;;;;;;;0.88;90.75;100796.81;1658894;85;25741;-73
2022/02/03 05:05:14;;;;;;;17.15;9.68;;;;;;;0.93;90.54;100795.98;1659728;85;25947;-73
2022/02/03 05:14:53;;;;;;;17.35;9.38;;;;;;;0.94;90.52;100798.16;1661519;85;25848;-72
2022/02/03 05:42:03;;;;;;;34.63;18.50;;;;;;;1.04;90.28;100811.81;1604326;84;33320;-73
2022/02/03 05:44:42;;;;;;;29.23;14.83;;;;;;;1.01;90.39;100811.19;1672180;85;26554;-73
2022/02/03 05:50:17;;;;;;;29.65;15.05;;;;;;;1.03;90.34;100828.58;1641253;86;26541;-73
2022/02/03 05:55:11;;;;;;;28.10;14.33;;;;;;;1.05;90.19;100828.48;1657919;86;25824;-73
2022/02/03 06:08:31;;;;;;;27.70;15.95;;;;;;;0.85;90.29;100861.67;1628964;87;25864;-76
2022/02/03 06:13:45;;;;;;;30.55;15.58;;;;;;;0.81;90.61;100862.88;1652299;86;25884;-73
2022/02/03 06:29:11;;;;;;;28.25;16.23;;;;;;;0.79;91.45;100881.42;1625949;87;25869;-73
2022/02/03 06:31:42;;;;;;;25.52;14.95;;;;;;;0.78;91.55;100881.08;1646506;86;27574;-73
2022/02/03 06:34:09;;;;;;;28.85;15.20;;;;;;;0.79;91.75;100890.66;1655993;86;25749;-73
2022/02/03 06:36:38;;;;;;;28.50;15.05;;;;;;;0.79;91.82;100889.84;1639746;86;25880;-73
2022/02/03 06:39:18;;;;;;;24.55;13.43;;;;;;;0.81;91.88;100885.29;1656571;86;25922;-73
2022/02/03 06:41:46;;;;;;;20.02;11.15;;;;;;;0.82;91.97;100890.91;1642355;86;26586;-74
2022/02/03 06:44:14;;;;;;;21.80;12.45;;;;;;;0.81;91.96;100894.52;1639650;86;28297;-73
2022/02/03 06:46:45;;;;;;;18.73;10.38;;;;;;;0.81;91.80;100894.98;1640188;86;26217;-73
2022/02/03 06:49:17;;;;;;;18.05;10.70;;;;;;;0.79;91.55;100896.44;1678015;83;25782;-73
2022/02/03 06:51:44;;;;;;;19.95;10.65;;;;;;;0.77;91.29;100884.66;1675602;84;26564;-75
2022/02/03 06:54:15;;;;;;;16.32;10.38;;;;;;;0.75;91.27;100887.05;1655059;86;25984;-73
2022/02/03 06:56:49;;;;;;;19.05;9.65;;;;;;;0.77;91.23;100891.25;1654038;86;28373;-74
2022/02/03 06:59:09;;;;;;;18.57;9.93;;;;;;;0.84;91.48;100883.72;1651676;86;25808;-73
2022/02/03 07:01:38;;;;;;;16.02;8.98;;;;;;;0.87;91.04;100882.64;1637416;86;25801;-73
2022/02/03 07:04:04;;;;;;;13.70;7.75;;;;;;;0.85;90.60;100883.25;1675995;84;25924;-73
2022/02/03 07:06:29;;;;;;;17.98;9.20;;;;;;;0.85;90.55;100892.00;1674102;84;26039;-73
2022/02/03 07:08:56;;;;;;;11.60;7.70;;;;;;;0.88;90.59;100910.70;1677527;84;27467;-73
2022/02/03 07:11:24;;;;;;;17.07;8.83;;;;;;;0.92;90.51;100914.79;1680924;84;25876;-73
2022/02/03 07:13:50;;;;;;;14.65;8.85;;;;;;;0.92;90.44;100914.28;1678025;83;25889;-73
2022/02/03 07:16:16;;;;;;;14.60;9.23;;;;;;;0.94;90.45;100907.09;1673303;84;26520;-73
2022/02/03 07:18:42;;;;;;;12.93;7.95;;;;;;;0.96;90.49;100914.91;1672711;84;25956;-72
2022/02/03 07:21:12;;;;;;;15.18;9.50;;;;;;;0.95;90.33;100908.79;1672867;83;28011;-73
2022/02/03 07:23:39;;;;;;;16.05;7.75;;;;;;;0.97;90.33;100913.47;1675602;83;26480;-73
2022/02/03 07:26:05;;;;;;;11.08;7.67;;;;;;;0.97;90.15;100902.06;1678876;84;25891;-74
2022/02/03 07:28:33;;;;;;;15.05;8.08;;;;;;;0.96;90.12;100901.72;1678025;83;25862;-73
2022/02/03 07:30:59;;;;;;;14.10;8.15;;;;;;;0.98;90.08;100911.67;1677194;84;25964;-73
2022/02/03 07:33:26;;;;;;;13.40;9.63;;;;;;;0.97;89.87;100913.47;1680160;84;27525;-73
2022/02/03 07:35:52;;;;;;;16.90;10.03;;;;;;;0.95;89.68;100912.74;1682434;84;25905;-73
2022/02/03 07:38:20;;;;;;;14.47;9.38;;;;;;;0.95;89.79;100922.45;1678845;84;25804;-74
2022/02/03 07:40:46;;;;;;;14.40;10.05;;;;;;;0.97;89.73;100916.10;1671247;84;26028;-73
2022/02/03 07:43:13;;;;;;;14.07;9.05;;;;;;;0.99;89.74;100913.34;1679169;84;25831;-73
2022/02/03 07:45:39;;;;;;;26.10;14.20;;;;;;;1.02;89.73;100921.87;1678608;84;27479;-73
2022/02/03 07:48:05;;;;;;;26.80;15.28;;;;;;;1.06;89.74;100917.19;1678716;84;25758;-72
2022/02/03 07:50:32;;;;;;;26.15;18.20;;;;;;;1.11;89.74;100928.23;1679783;84;25880;-73
2022/02/03 07:52:58;;;;;;;17.67;12.35;;;;;;;1.15;89.56;100922.61;1680239;83;26824;-74
2022/02/03 07:55:25;;;;;;;18.60;10.35;;;;;;;1.20;89.49;100935.42;1676589;84;26476;-73
2022/02/03 07:57:54;;;;;;;24.12;14.03;;;;;;;1.27;89.32;100929.56;1675305;83;27628;-73
2022/02/03 08:00:23;;;;;;;15.95;10.93;;;;;;;1.31;88.95;100924.40;1678352;84;25664;-74
2022/02/03 08:02:49;;;;;;;15.65;8.35;;;;;;;1.37;88.82;100916.47;1674039;84;25769;-73
2022/02/03 08:05:19;;;;;;;14.00;8.15;;;;;;;1.42;88.29;100923.55;1674619;84;26521;-73
2022/02/03 08:08:03;;;;;;;13.35;8.20;;;;;;;1.46;88.07;100922.35;1673034;84;25373;-73
2022/02/03 08:10:43;;;;;;;13.68;7.30;;;;;;;1.49;87.96;100922.97;1677753;84;27137;-74
2022/02/03 08:13:09;;;;;;;10.45;6.45;;;;;;;1.50;87.47;100920.67;1677457;84;25902;-73
2022/02/03 08:15:37;;;;;;;11.70;7.78;;;;;;;1.49;86.70;100928.72;1675052;84;25635;-74
2022/02/03 08:18:07;;;;;;;11.73;6.80;;;;;;;1.47;86.30;100937.24;1679885;84;26656;-74
2022/02/03 08:20:31;;;;;;;10.70;5.92;;;;;;;1.44;86.09;100938.32;1675712;84;26514;-73
2022/02/03 08:25:41;;;;;;;10.45;6.05;;;;;;;1.48;86.32;100933.62;1638687;86;25919;-73
2022/02/03 08:30:58;;;;;;;8.45;5.30;;;;;;;1.48;85.68;100921.28;1630367;87;25922;-72
2022/02/03 08:33:20;;;;;;;8.78;6.53;;;;;;;1.50;85.84;100910.11;1639940;85;25835;-73
2022/02/03 08:35:49;;;;;;;15.03;7.47;;;;;;;1.51;85.15;100913.60;1657598;85;27460;-73
2022/02/03 08:43:19;;;;;;;16.75;9.95;;;;;;;1.54;85.14;100918.14;1640314;86;25851;-73
2022/02/03 08:45:47;;;;;;;15.08;9.93;;;;;;;1.58;84.60;100917.91;1661717;85;25848;-73
2022/02/03 08:48:15;;;;;;;38.48;24.85;;;;;;;1.58;84.54;100921.87;1656208;85;27604;-74
2022/02/03 08:50:42;;;;;;;14.23;9.20;;;;;;;1.60;85.05;100918.63;1658095;85;26285;-73
2022/02/03 08:53:15;;;;;;;12.43;7.75;;;;;;;1.60;83.86;100919.48;1658372;85;25848;-73
2022/02/03 09:28:12;;;;;;;14.55;9.03;;;;;;;1.60;84.62;100927.88;1612848;87;27672;-73
2022/02/03 09:32:46;;;;;;;28.98;16.23;;;;;;;1.90;83.76;100901.18;1656184;85;26726;-72
2022/02/03 09:34:39;;;;;;;32.20;18.85;;;;;;;1.96;83.98;100899.83;1660638;84;25876;-73
2022/02/03 09:38:52;;;;;;;10.58;7.62;;;;;;;2.02;83.83;100900.17;1655889;85;26162;-74
2022/02/03 09:41:23;;;;;;;12.23;7.08;;;;;;;2.06;83.37;100903.39;1639147;86;27718;-73
2022/02/03 09:54:50;;;;;;;12.65;8.03;;;;;;;2.06;83.18;100910.00;1657685;85;27524;-73
2022/02/03 09:57:35;;;;;;;20.68;10.82;;;;;;;2.05;83.39;100905.70;1655538;85;25773;-74
2022/02/03 09:59:57;;;;;;;138.40;50.12;;;;;;;2.06;83.12;100903.39;1655977;85;26369;-73
2022/02/03 10:02:23;;;;;;;106.92;44.53;;;;;;;2.07;83.72;100899.33;1660464;85;26551;-73
2022/02/03 10:04:54;;;;;;;62.67;33.80;;;;;;;2.12;84.26;100894.48;1659753;85;25570;-73
2022/02/03 10:07:25;;;;;;;46.90;26.60;;;;;;;2.17;84.21;100889.67;1658932;85;27618;-73
2022/02/03 10:09:54;;;;;;;22.20;13.00;;;;;;;2.22;84.71;100887.47;1657735;85;26425;-73
2022/02/03 10:12:39;;;;;;;31.80;16.02;;;;;;;2.30;84.67;100897.42;1656456;85;25719;-74
2022/02/03 10:15:09;;;;;;;38.73;18.05;;;;;;;2.34;84.45;100896.20;1655520;85;25802;-74
2022/02/03 10:17:46;;;;;;;24.98;13.30;;;;;;;2.39;84.31;100895.35;1656751;85;25884;-72
2022/02/03 10:20:18;;;;;;;39.70;19.55;;;;;;;2.40;84.12;100886.44;1668890;85;27466;-74
2022/02/03 10:22:52;;;;;;;19.87;10.68;;;;;;;2.41;83.99;100888.61;1660595;85;26268;-73
2022/02/03 10:25:29;;;;;;;17.65;9.85;;;;;;;2.42;83.72;100885.02;1663444;85;25810;-73
2022/02/03 10:28:07;;;;;;;17.67;8.70;;;;;;;2.42;83.97;100879.22;1667241;85;26713;-73
2022/02/03 10:30:40;;;;;;;19.35;10.78;;;;;;;2.44;83.84;100874.64;1663473;85;26468;-73
2022/02/03 10:33:04;;;;;;;;;;;;;;;2.44;83.82;100869.35;1669923;84;27663;-74
2022/02/03 10:35:52;;;;;;;12.33;8.40;;;;;;;2.49;84.14;100868.49;1664079;85;26523;-73
2022/02/03 10:54:47;;;;;;;21.65;11.78;;;;;;;2.69;84.24;100855.77;1657636;85;25895;-73
2022/02/03 10:57:30;;;;;;;13.38;8.25;;;;;;;2.73;84.28;100851.89;1649525;83;25963;-76
2022/02/03 11:02:35;;;;;;;12.85;7.97;;;;;;;2.80;84.22;100839.80;1668076;85;25890;-74
2022/02/03 11:05:17;;;;;;;21.30;9.68;;;;;;;2.81;83.75;100840.16;1659080;85;25758;-74
2022/02/03 11:07:40;;;;;;;15.30;9.30;;;;;;;2.80;83.66;100835.83;1608634;88;26431;-75
2022/02/03 11:10:15;;;;;;;;;;;;;;;2.83;83.74;100842.66;1654598;85;25794;-76
2022/02/03 11:12:32;;;;;;;;;;;;;;;2.81;83.53;100840.64;1644593;86;27673;-76
2022/02/03 11:14:59;;;;;;;14.73;7.70;;;;;;;2.77;83.13;100844.05;1639292;86;26125;-75
2022/02/03 11:17:27;;;;;;;16.35;7.85;;;;;;;2.72;83.42;100844.91;1650152;85;25835;-75
2022/02/03 11:19:57;;;;;;;13.68;7.95;;;;;;;2.71;83.34;100843.72;1660573;85;25837;-75
2022/02/03 11:22:31;;;;;;;17.65;10.40;;;;;;;2.69;83.57;100846.51;1660783;83;25746;-75
2022/02/03 11:25:05;;;;;;;17.80;9.10;;;;;;;2.69;83.68;100837.73;1651542;85;27484;-76
2022/02/03 11:27:30;;;;;;;14.90;8.00;;;;;;;2.67;83.23;100837.87;1641458;85;25778;-76
2022/02/03 11:30:59;;;;;;;18.42;9.38;;;;;;;2.63;83.19;100836.42;1624169;87;25856;-76
2022/02/03 11:33:23;;;;;;;12.95;8.08;;;;;;;2.61;83.27;100832.27;1642698;86;25979;-75
2022/02/03 11:44:59;;;;;;;19.52;12.43;;;;;;;2.74;84.32;100825.77;1669231;84;25863;-75
2022/02/03 11:55:24;;;;;;;;;;;;;;;2.77;84.24;100806.16;1657507;85;25700;-74
2022/02/03 12:00:45;;;;;;;24.80;12.98;;;;;;;2.80;84.63;100801.95;1617049;87;26029;-76
2022/02/03 12:03:17;;;;;;;36.03;18.55;;;;;;;2.84;84.69;100800.23;1624766;88;26006;-76
2022/02/03 12:11:21;;;;;;;22.35;12.28;;;;;;;2.90;85.26;100806.31;1602965;88;26532;-75
2022/02/03 12:16:55;;;;;;;31.70;18.02;;;;;;;2.90;85.00;100794.41;1635231;87;25845;-76
2022/02/03 12:22:00;;;;;;;23.85;14.43;;;;;;;2.84;85.45;100790.13;1610048;88;26450;-75
2022/02/03 12:24:37;;;;;;;27.50;15.08;;;;;;;2.83;85.60;100799.02;1610160;88;26419;-75
2022/02/03 12:27:15;;;;;;;26.95;14.28;;;;;;;2.86;86.31;100798.77;1613307;87;25868;-74
2022/02/03 12:29:34;;;;;;;26.35;15.03;;;;;;;2.87;86.46;100796.45;1628560;86;25810;-77
2022/02/03 12:38:12;;;;;;;29.75;15.00;;;;;;;2.77;87.81;100776.59;1687076;84;26622;-73
2022/02/03 12:40:36;;;;;;;28.15;14.87;;;;;;;2.73;87.93;100774.34;1674165;84;25842;-74
2022/02/03 12:43:14;;;;;;;26.57;16.05;;;;;;;2.70;88.32;100769.30;1652246;86;25934;-73
2022/02/03 12:45:33;;;;;;;28.85;16.00;;;;;;;2.68;88.65;100769.44;1683482;85;28445;-74
2022/02/03 12:48:03;;;;;;;28.73;15.03;;;;;;;2.70;89.10;100764.86;1665111;85;26672;-73
2022/02/03 12:50:33;;;;;;;22.22;12.58;;;;;;;2.74;89.25;100762.77;1679985;83;25857;-73
2022/02/03 12:53:03;;;;;;;25.25;14.80;;;;;;;2.77;89.45;100764.69;1676469;84;25925;-74
2022/02/03 12:55:36;;;;;;;31.85;15.55;;;;;;;2.78;89.25;100761.56;1670200;84;25784;-76
2022/02/03 12:58:11;;;;;;;30.05;15.03;;;;;;;2.84;89.62;100757.06;1669700;83;28284;-76
2022/02/03 13:00:44;;;;;;;34.33;15.23;;;;;;;2.88;89.62;100754.02;1672735;83;26559;-75
2022/02/03 13:03:11;;;;;;;32.85;16.65;;;;;;;2.93;89.79;100755.75;1694295;83;25775;-74
2022/02/03 13:05:41;;;;;;;28.90;14.30;;;;;;;3.00;89.81;100758.70;1685980;84;25878;-75
2022/02/03 13:08:09;;;;;;;26.65;15.38;;;;;;;3.03;89.65;100754.48;1666957;85;25371;-75
2022/02/03 13:10:37;;;;;;;24.75;12.53;;;;;;;3.05;89.57;100751.20;1675568;84;27466;-76
2022/02/03 13:13:29;;;;;;;29.45;14.07;;;;;;;3.06;89.35;100747.57;1668976;84;25762;-74
2022/02/03 13:15:49;;;;;;;26.12;13.45;;;;;;;3.02;89.14;100743.05;1687412;83;26379;-75
2022/02/03 13:18:29;;;;;;;33.38;15.93;;;;;;;3.02;89.16;100744.85;1684423;83;25859;-75
2022/02/03 13:21:20;;;;;;;29.67;13.48;;;;;;;3.00;89.12;100750.28;1682970;84;25800;-75
2022/02/03 13:23:23;;;;;;;28.10;15.80;;;;;;;3.01;89.10;100759.91;1679320;84;28329;-74
2022/02/03 13:26:07;;;;;;;27.62;15.30;;;;;;;3.04;89.36;100761.43;1637275;87;26342;-75
2022/02/03 13:34:03;;;;;;;28.30;15.35;;;;;;;2.99;89.25;100768.44;1675483;84;25881;-76
2022/02/03 13:36:39;;;;;;;32.42;15.35;;;;;;;2.97;89.34;100769.58;1638251;86;28508;-73
2022/02/03 13:39:11;;;;;;;34.13;18.77;;;;;;;2.94;89.27;100761.89;1652351;86;25795;-73
2022/02/03 13:41:39;;;;;;;31.50;17.48;;;;;;;2.88;89.31;100754.02;1661989;85;26021;-74
2022/02/03 13:44:09;;;;;;;28.10;16.85;;;;;;;2.85;89.38;100752.10;1660404;84;25852;-73
2022/02/03 13:46:39;;;;;;;33.98;18.85;;;;;;;2.84;89.66;100753.09;1680574;84;26667;-74
2022/02/03 13:49:17;;;;;;;33.18;19.77;;;;;;;2.82;89.75;100759.81;1630347;87;27327;-74
2022/02/03 13:51:46;;;;;;;38.55;21.25;;;;;;;2.82;89.98;100762.46;1632817;87;25881;-77
2022/02/03 14:22:02;;;;;;;45.38;27.22;;;;;;;2.91;90.78;100760.34;1568020;85;25897;-74
2022/02/03 14:29:49;;;;;;;38.90;22.07;;;;;;;2.89;90.86;100750.86;1649656;86;27440;-73
2022/02/03 14:32:18;;;;;;;40.92;21.70;;;;;;;2.91;90.85;100756.38;1648468;86;25778;-74
2022/02/03 14:34:43;;;;;;;49.77;25.43;;;;;;;2.92;90.92;100750.61;1649579;86;25845;-74
2022/02/03 14:37:39;;;;;;;46.05;24.30;;;;;;;2.95;91.01;100751.16;1659004;85;25785;-73
2022/02/03 14:42:28;;;;;;;47.00;25.60;;;;;;;3.00;91.00;100741.50;1683582;84;28060;-73
2022/02/03 14:44:53;;;;;;;56.08;25.85;;;;;;;3.01;90.89;100739.22;1676134;83;25938;-74
2022/02/03 14:47:22;;;;;;;47.62;23.50;;;;;;;3.02;90.84;100740.88;1703000;83;25999;-73
2022/02/03 14:49:47;;;;;;;67.75;31.75;;;;;;;3.03;90.76;100734.63;1692128;83;26005;-73
2022/02/03 14:52:31;;;;;;;74.47;39.55;;;;;;;3.04;90.77;100737.61;1675230;83;25886;-74
2022/02/03 15:00:27;;;;;;;45.45;23.80;;;;;;;3.02;90.54;100723.20;1685754;84;25978;-74
2022/02/03 15:02:56;;;;;;;46.80;24.72;;;;;;;2.98;90.42;100708.58;1685353;84;25842;-74
2022/02/03 15:05:26;;;;;;;44.58;22.52;;;;;;;2.97;90.42;100708.72;1682470;84;26401;-74
2022/02/03 15:07:57;;;;;;;44.88;22.10;;;;;;;2.94;90.39;100708.98;1670532;84;27461;-75
2022/02/03 15:10:41;;;;;;;45.80;23.25;;;;;;;2.92;90.44;100713.09;1679496;84;25893;-74
2022/02/03 15:15:24;;;;;;;46.48;24.95;;;;;;;2.90;90.48;100725.62;1680200;84;26847;-74
2022/02/03 15:17:50;;;;;;;47.65;24.05;;;;;;;2.89;90.54;100737.16;1671570;85;25829;-74
2022/02/03 15:20:16;;;;;;;41.80;24.07;;;;;;;2.86;90.54;100732.16;1676578;84;27552;-74
2022/02/03 15:22:43;;;;;;;46.83;22.95;;;;;;;2.83;90.52;100735.05;1676912;84;25964;-74
2022/02/03 15:25:11;;;;;;;47.10;24.60;;;;;;;2.84;90.68;100727.96;1681241;84;25306;-75
2022/02/03 15:27:39;;;;;;;38.00;22.20;;;;;;;2.85;90.75;100724.33;1684361;84;26414;-74
2022/02/03 15:30:06;;;;;;;48.00;25.20;;;;;;;2.86;90.77;100729.51;1680385;84;25746;-74
2022/02/03 15:32:38;;;;;;;48.02;23.38;;;;;;;2.87;90.81;100727.67;1672193;84;27434;-74
2022/02/03 15:35:01;;;;;;;42.55;21.05;;;;;;;2.90;90.83;100726.09;1668178;84;25761;-75
2022/02/03 15:37:29;;;;;;;48.30;23.42;;;;;;;2.91;90.72;100722.46;1647747;85;25846;-75
2022/02/03 15:40:02;;;;;;;52.90;26.10;;;;;;;2.88;90.71;100720.95;1668726;83;25903;-75
2022/02/03 15:42:26;;;;;;;51.02;25.88;;;;;;;2.91;90.75;100731.72;1663012;85;25839;-76
2022/02/03 15:44:53;;;;;;;53.02;27.00;;;;;;;2.93;90.77;100717.39;1665329;85;27448;-75
2022/02/03 15:47:35;;;;;;;53.17;26.95;;;;;;;2.95;90.75;100719.92;1661060;85;25303;-75
2022/02/03 15:50:24;;;;;;;43.20;22.15;;;;;;;2.97;90.69;100715.33;1663173;85;25890;-76
2022/02/03 16:19:19;;;;;;;44.38;23.55;;;;;;;3.23;89.89;100704.56;1680561;84;25867;-75
2022/02/03 16:22:01;;;;;;;50.90;26.82;;;;;;;3.21;89.88;100691.95;1684511;84;26627;-76
2022/02/03 16:24:38;;;;;;;46.10;24.02;;;;;;;3.19;89.80;100693.91;1692101;84;27693;-76
2022/02/03 16:41:06;;;;;;;42.93;22.60;;;;;;;3.05;90.09;100680.61;1685418;84;26033;-75
2022/02/03 16:43:52;;;;;;;43.33;22.30;;;;;;;3.01;90.16;100679.21;1693291;83;25774;-75
2022/02/03 16:51:41;;;;;;;49.35;22.30;;;;;;;3.04;90.30;100676.75;1679908;84;28418;-76
2022/02/03 16:53:52;;;;;;;46.70;21.80;;;;;;;3.05;90.37;100675.79;1679504;83;25815;-75
2022/02/03 16:56:21;;;;;;;44.23;23.12;;;;;;;3.04;90.34;100673.63;1682294;84;25869;-76
2022/02/03 16:58:48;;;;;;;50.60;22.67;;;;;;;3.05;90.30;100670.02;1687803;84;26604;-76
2022/02/03 17:01:14;;;;;;;50.65;23.98;;;;;;;3.09;90.46;100672.73;1664388;85;25761;-76
2022/02/03 17:03:40;;;;;;;50.50;21.17;;;;;;;3.11;90.45;100666.82;1660735;85;27689;-76
2022/02/03 17:06:07;;;;;;;50.98;23.52;;;;;;;3.13;90.38;100662.70;1637191;85;26613;-76
2022/02/03 17:08:34;;;;;;;45.92;23.77;;;;;;;3.14;90.37;100665.72;1659364;85;25866;-74
2022/02/03 17:11:01;;;;;;;47.80;26.77;;;;;;;3.14;90.40;100663.06;1656640;85;26570;-75
2022/02/03 17:13:27;;;;;;;53.45;26.25;;;;;;;3.18;90.47;100660.97;1661527;85;26089;-76
2022/02/03 17:15:53;;;;;;;53.38;28.20;;;;;;;3.20;90.44;100665.16;1670116;85;27860;-76
2022/02/03 17:18:20;;;;;;;49.42;25.82;;;;;;;3.21;90.36;100654.91;1663896;84;25859;-76
2022/02/03 17:20:46;;;;;;;57.25;30.57;;;;;;;3.21;90.25;100655.41;1663175;85;25955;-75
2022/02/03 17:23:17;;;;;;;49.40;26.27;;;;;;;3.22;90.25;100657.06;1661912;85;25780;-75
2022/02/03 17:25:49;;;;;;;48.20;26.62;;;;;;;3.23;90.22;100649.49;1660816;85;25801;-74
2022/02/03 17:28:24;;;;;;;51.85;25.77;;;;;;;3.23;90.15;100649.49;1693652;83;27713;-75
2022/02/03 17:31:01;;;;;;;53.35;27.95;;;;;;;3.21;90.04;100652.25;1692305;83;25800;-76
2022/02/03 17:54:16;;;;;;;55.65;27.62;;;;;;;3.25;90.03;100639.59;1661245;85;25838;-77
2022/02/03 18:03:53;;;;;;;69.55;32.98;;;;;;;3.20;89.83;100622.81;1660423;84;26387;-75
2022/02/03 18:28:20;;;;;;;72.92;36.05;;;;;;;3.11;89.30;100593.20;1658360;85;26562;-75
2022/02/03 18:30:10;;;;;;;66.37;32.80;;;;;;;3.11;89.32;100579.48;1655655;85;26424;-75
2022/02/03 18:45:50;;;;;;;63.28;32.45;;;;;;;3.07;89.25;100574.13;1679324;84;26532;-76
2022/02/03 18:45:59;;;;;;;63.70;31.27;;;;;;;3.03;88.99;100563.96;1678417;84;26029;-76
2022/02/03 18:50:56;;;;;;;60.40;29.92;;;;;;;2.97;88.97;100560.55;1678927;84;26124;-75
2022/02/03 18:53:29;;;;;;;57.93;28.85;;;;;;;2.94;88.87;100560.34;1676038;84;25845;-76
2022/02/03 18:58:38;;;;;;;64.70;31.17;;;;;;;2.93;88.88;100556.52;1685165;84;26100;-75
2022/02/03 19:01:16;;;;;;;61.83;31.97;;;;;;;2.93;88.87;100548.07;1676988;84;27662;-75
2022/02/03 19:14:42;;;;;;;66.72;33.25;;;;;;;2.93;88.85;100540.13;1680676;84;28237;-75
2022/02/03 19:27:55;;;;;;;76.05;37.05;;;;;;;2.90;88.84;100524.56;1682863;84;27475;-75
2022/02/03 20:05:54;;;;;;;71.17;32.63;;;;;;;2.69;89.07;100499.22;1656752;85;25780;-75
2022/02/03 20:08:29;;;;;;;65.35;33.25;;;;;;;2.68;89.05;100497.05;1665440;84;27720;-75
2022/02/03 20:10:50;;;;;;;67.82;33.00;;;;;;;2.68;89.00;100492.24;1655886;85;26032;-76
2022/02/03 20:13:16;;;;;;;68.07;33.20;;;;;;;2.66;88.99;100496.36;1660526;85;25917;-76
2022/02/03 20:15:45;;;;;;;67.80;32.48;;;;;;;2.68;89.07;100496.21;1661255;85;26894;-75
2022/02/03 20:18:14;;;;;;;61.92;31.60;;;;;;;2.71;89.12;100491.98;1657682;85;25839;-77
2022/02/03 20:20:44;;;;;;;65.12;31.48;;;;;;;2.73;89.10;100489.55;1656439;85;27561;-77
2022/02/03 20:23:15;;;;;;;67.80;31.40;;;;;;;2.75;89.01;100497.34;1657685;84;26059;-75
2022/02/03 20:25:49;;;;;;;69.27;32.20;;;;;;;2.75;88.99;100492.05;1659310;85;25922;-75
2022/02/03 20:28:13;;;;;;;77.87;33.42;;;;;;;2.76;89.00;100486.61;1657107;85;26035;-74
2022/02/03 20:30:39;;;;;;;61.88;29.37;;;;;;;2.78;88.96;100492.59;1656107;85;25927;-75
2022/02/03 20:33:05;;;;;;;67.78;32.38;;;;;;;2.78;88.90;100487.30;1658524;85;28038;-75
2022/02/03 20:35:32;;;;;;;76.05;31.42;;;;;;;2.80;88.83;100487.19;1657492;84;26044;-75
2022/02/03 20:37:59;;;;;;;67.85;29.45;;;;;;;2.81;88.82;100483.55;1656040;85;25792;-75
2022/02/03 20:40:25;;;;;;;68.90;30.75;;;;;;;2.80;88.80;100476.09;1659001;85;25824;-76
2022/02/03 20:42:51;;;;;;;57.50;28.27;;;;;;;2.81;88.82;100476.45;1657228;85;25764;-76
2022/02/03 20:45:17;;;;;;;60.98;29.12;;;;;;;2.80;88.76;100474.77;1656605;85;27434;-76
2022/02/03 20:47:44;;;;;;;58.13;26.05;;;;;;;2.78;88.69;100470.62;1655931;85;25956;-75
2022/02/03 20:50:13;;;;;;;58.08;24.25;;;;;;;2.76;88.83;100477.86;1657713;85;25830;-75
2022/02/03 20:52:40;;;;;;;58.13;23.22;;;;;;;2.75;88.78;100475.70;1658766;85;25860;-74
2022/02/03 20:55:06;;;;;;;47.55;22.27;;;;;;;2.73;88.81;100468.88;1660104;85;25842;-75
2022/02/03 20:57:33;;;;;;;46.98;22.40;;;;;;;2.72;88.83;100477.28;1657044;85;28317;-75
2022/02/03 21:02:49;;;;;;;48.02;22.02;;;;;;;2.68;88.87;100469.28;1657920;85;25801;-75
2022/02/03 21:05:15;;;;;;;46.53;19.35;;;;;;;2.71;88.91;100478.75;1656790;85;25815;-75